Time;durP1;ratioP1;P1;durP2;ratioP2;P2;SDS_P1;SDS_P2;PMS_P1;PMS_P2;Temp;Humidity;BMP_temperature;BMP_pressure;BME280_temperature;BME280_humidity;BME280_pressure;Samples;Min_cycle;Max_cycle;Signal;HPM_P1;HPM_P2
2023/07/17 00:04:50;;;;;;;12.63;9.67;;;;;;;;;;12727248;23;20691;-81
2023/07/17 00:09:52;;;;;;;13.85;9.70;;;;;;;;;;12726338;23;20457;-81
2023/07/17 00:14:56;;;;;;;12.07;9.57;;;;;;;;;;12726800;23;20424;-81
2023/07/17 00:19:59;;;;;;;12.90;9.90;;;;;;;;;;12726981;23;20365;-81
2023/07/17 00:25:01;;;;;;;13.30;9.77;;;;;;;;;;12727510;23;20900;-81
2023/07/17 00:30:06;;;;;;;11.65;9.82;;;;;;;;;;12729300;23;20840;-81
2023/07/17 00:35:09;;;;;;;15.85;10.30;;;;;;;;;;12727137;23;20370;-81
2023/07/17 00:40:12;;;;;;;15.13;10.60;;;;;;;;;;12725811;23;20362;-81
2023/07/17 00:45:15;;;;;;;14.17;9.40;;;;;;;;;;12728350;23;20369;-81
2023/07/17 00:50:19;;;;;;;14.27;9.75;;;;;;;;;;12561591;22;20420;-83
2023/07/17 00:55:22;;;;;;;12.40;9.02;;;;;;;;;;13015105;22;20432;-82
2023/07/17 01:00:26;;;;;;;12.13;9.60;;;;;;;;;;13041733;22;20369;-82
2023/07/17 01:05:28;;;;;;;11.98;9.40;;;;;;;;;;13041597;22;20360;-82
2023/07/17 01:10:30;;;;;;;12.88;9.45;;;;;;;;;;13042631;22;20361;-82
2023/07/17 01:15:34;;;;;;;11.57;8.90;;;;;;;;;;13042268;22;20685;-82
2023/07/17 01:20:36;;;;;;;13.38;9.13;;;;;;;;;;13042516;22;20373;-82
2023/07/17 01:25:40;;;;;;;14.07;9.10;;;;;;;;;;13041144;22;20446;-82
2023/07/17 01:30:42;;;;;;;10.68;7.93;;;;;;;;;;13045536;22;20364;-82
2023/07/17 01:35:45;;;;;;;10.00;8.85;;;;;;;;;;13046186;22;20824;-82
2023/07/17 01:40:49;;;;;;;10.50;8.57;;;;;;;;;;13046138;22;20434;-82
2023/07/17 01:45:51;;;;;;;11.75;8.27;;;;;;;;;;13046528;22;20365;-82
2023/07/17 01:50:53;;;;;;;10.82;8.20;;;;;;;;;;13045481;22;20357;-82
2023/07/17 01:55:57;;;;;;;9.90;8.20;;;;;;;;;;13045252;22;20418;-82
2023/07/17 02:00:59;;;;;;;11.52;8.63;;;;;;;;;;13044882;22;20381;-82
2023/07/17 02:06:02;;;;;;;10.80;8.20;;;;;;;;;;13045222;22;20446;-82
2023/07/17 02:11:05;;;;;;;12.75;8.95;;;;;;;;;;13044364;22;20411;-82
2023/07/17 02:16:08;;;;;;;12.43;8.20;;;;;;;;;;13046141;22;20415;-82
2023/07/17 02:21:10;;;;;;;10.30;8.50;;;;;;;;;;13045705;22;20384;-82
2023/07/17 02:26:14;;;;;;;10.75;8.70;;;;;;;;;;13044196;22;20392;-81
2023/07/17 02:31:16;;;;;;;11.63;8.77;;;;;;;;;;13044849;22;20369;-82
2023/07/17 02:36:19;;;;;;;9.93;8.77;;;;;;;;;;13045141;22;20361;-82
2023/07/17 02:41:22;;;;;;;11.55;8.68;;;;;;;;;;13043681;22;20385;-82
2023/07/17 02:46:25;;;;;;;10.88;8.55;;;;;;;;;;13044865;22;20357;-82
2023/07/17 02:51:27;;;;;;;14.02;10.85;;;;;;;;;;13043051;22;20365;-82
2023/07/17 02:56:31;;;;;;;12.38;10.70;;;;;;;;;;13043752;22;20365;-82
2023/07/17 03:01:33;;;;;;;15.83;11.67;;;;;;;;;;13044691;22;20430;-81
2023/07/17 03:06:35;;;;;;;14.10;10.70;;;;;;;;;;13044941;22;20361;-82
2023/07/17 03:11:39;;;;;;;12.77;11.07;;;;;;;;;;13043497;22;20825;-82
2023/07/17 03:16:41;;;;;;;14.18;11.52;;;;;;;;;;13044418;22;20365;-82
2023/07/17 03:21:44;;;;;;;15.65;11.20;;;;;;;;;;13045051;22;20407;-82
2023/07/17 03:26:47;;;;;;;12.95;11.45;;;;;;;;;;13043182;22;20426;-82
2023/07/17 03:31:50;;;;;;;14.38;11.55;;;;;;;;;;13044261;22;20508;-82
2023/07/17 03:36:53;;;;;;;16.10;12.10;;;;;;;;;;13043313;22;20586;-82
2023/07/17 03:41:56;;;;;;;14.20;11.10;;;;;;;;;;13042901;22;21042;-82
2023/07/17 03:46:59;;;;;;;16.10;11.90;;;;;;;;;;13043690;22;20365;-81
2023/07/17 03:52:01;;;;;;;15.83;11.90;;;;;;;;;;13042490;22;20376;-82
2023/07/17 03:57:05;;;;;;;14.73;11.10;;;;;;;;;;13041739;22;20357;-82
2023/07/17 04:02:08;;;;;;;13.77;11.20;;;;;;;;;;13043607;22;20381;-82
2023/07/17 04:07:11;;;;;;;16.60;11.80;;;;;;;;;;13043416;22;20361;-82
2023/07/17 04:12:14;;;;;;;15.65;12.27;;;;;;;;;;13041939;22;20365;-82
2023/07/17 04:17:17;;;;;;;17.93;13.23;;;;;;;;;;13041045;22;20365;-82
2023/07/17 04:22:19;;;;;;;17.90;12.97;;;;;;;;;;13041895;22;20411;-82
2023/07/17 04:27:23;;;;;;;16.90;13.80;;;;;;;;;;13041393;22;20361;-82
2023/07/17 04:32:25;;;;;;;19.75;13.88;;;;;;;;;;13041579;22;20731;-82
2023/07/17 04:37:28;;;;;;;20.67;13.90;;;;;;;;;;13040659;22;20808;-82
2023/07/17 04:42:31;;;;;;;17.73;13.77;;;;;;;;;;13039967;22;20872;-82
2023/07/17 04:47:34;;;;;;;18.92;13.10;;;;;;;;;;13043417;22;20418;-82
2023/07/17 04:52:36;;;;;;;17.83;13.52;;;;;;;;;;13041200;22;20365;-82
2023/07/17 04:57:40;;;;;;;20.42;14.63;;;;;;;;;;13042055;22;20369;-82
2023/07/17 05:02:42;;;;;;;17.55;13.82;;;;;;;;;;13042806;22;20789;-81
2023/07/17 05:07:44;;;;;;;19.45;14.25;;;;;;;;;;13046559;22;20356;-82
2023/07/17 05:12:48;;;;;;;18.10;13.53;;;;;;;;;;13046162;22;20687;-81
2023/07/17 05:17:50;;;;;;;19.98;14.75;;;;;;;;;;13045678;22;20426;-81
2023/07/17 05:22:53;;;;;;;23.13;14.75;;;;;;;;;;13046493;22;20755;-82
2023/07/17 05:27:57;;;;;;;21.08;15.05;;;;;;;;;;13045777;22;20736;-82
2023/07/17 05:32:59;;;;;;;19.53;14.63;;;;;;;;;;13046704;22;20402;-82
2023/07/17 05:38:01;;;;;;;19.70;14.50;;;;;;;;;;13043190;22;20841;-81
2023/07/17 05:43:05;;;;;;;21.30;14.37;;;;;;;;;;13046087;22;20381;-81
2023/07/17 05:48:07;;;;;;;20.80;14.23;;;;;;;;;;13045021;22;20829;-81
2023/07/17 05:53:10;;;;;;;16.38;13.18;;;;;;;;;;13044382;22;20419;-81
2023/07/17 05:58:13;;;;;;;16.33;12.50;;;;;;;;;;13044128;22;20361;-81
2023/07/17 06:03:17;;;;;;;19.17;12.20;;;;;;;;;;13046379;22;20385;-81
2023/07/17 06:08:20;;;;;;;16.23;12.38;;;;;;;;;;13045357;22;20357;-81
2023/07/17 06:13:23;;;;;;;17.70;11.43;;;;;;;;;;13045401;22;20365;-81
2023/07/17 06:18:26;;;;;;;16.30;11.43;;;;;;;;;;13044730;22;20376;-81
2023/07/17 06:23:28;;;;;;;18.00;11.30;;;;;;;;;;13043701;22;20434;-81
2023/07/17 06:28:32;;;;;;;20.00;12.13;;;;;;;;;;13044439;22;20677;-80
2023/07/17 06:33:35;;;;;;;16.73;10.70;;;;;;;;;;13045520;22;20358;-81
2023/07/17 06:38:37;;;;;;;14.48;10.43;;;;;;;;;;13043672;22;20357;-81
2023/07/17 06:43:43;;;;;;;11.85;8.98;;;;;;;;;;13043608;22;21016;-81
2023/07/17 06:48:45;;;;;;;14.07;8.63;;;;;;;;;;13044336;22;20383;-81
2023/07/17 06:53:47;;;;;;;12.87;9.80;;;;;;;;;;13043535;22;20369;-81
2023/07/17 06:58:51;;;;;;;12.63;8.98;;;;;;;;;;13043908;22;21039;-81
2023/07/17 07:03:53;;;;;;;14.57;9.43;;;;;;;;;;13043591;22;20381;-81
2023/07/17 07:08:55;;;;;;;11.17;8.00;;;;;;;;;;13043127;22;20364;-81
2023/07/17 07:13:59;;;;;;;13.25;8.18;;;;;;;;;;13044430;22;20608;-81
2023/07/17 07:19:02;;;;;;;11.90;7.73;;;;;;;;;;13044162;22;20352;-81
2023/07/17 07:24:05;;;;;;;12.43;8.80;;;;;;;;;;13043585;22;20917;-81
2023/07/17 07:29:09;;;;;;;12.95;9.48;;;;;;;;;;13042843;22;20392;-81
2023/07/17 07:34:11;;;;;;;14.20;9.80;;;;;;;;;;13043158;22;20894;-81
2023/07/17 07:39:13;;;;;;;11.98;9.05;;;;;;;;;;13042519;22;20361;-81
2023/07/17 07:44:17;;;;;;;13.70;9.07;;;;;;;;;;13043833;22;20388;-81
2023/07/17 07:49:19;;;;;;;12.10;7.97;;;;;;;;;;13042836;22;20434;-81
2023/07/17 07:54:22;;;;;;;12.85;7.80;;;;;;;;;;13042821;22;20381;-81
2023/07/17 07:59:25;;;;;;;10.98;7.68;;;;;;;;;;13042963;22;20357;-81
2023/07/17 08:04:28;;;;;;;11.50;7.35;;;;;;;;;;13042229;22;20466;-80
2023/07/17 08:09:31;;;;;;;12.93;6.95;;;;;;;;;;13039209;22;20876;-81
2023/07/17 08:14:34;;;;;;;10.20;6.77;;;;;;;;;;13039515;22;20426;-81
2023/07/17 08:19:37;;;;;;;11.05;7.55;;;;;;;;;;13042528;22;20438;-81
2023/07/17 08:24:39;;;;;;;10.23;7.20;;;;;;;;;;13041444;22;20407;-81
2023/07/17 08:29:43;;;;;;;11.33;7.50;;;;;;;;;;13041877;22;20361;-82
2023/07/17 08:34:45;;;;;;;11.80;7.80;;;;;;;;;;13042107;22;20365;-81
2023/07/17 08:39:48;;;;;;;10.90;7.30;;;;;;;;;;13040846;22;20912;-81
2023/07/17 08:44:55;;;;;;;10.13;7.50;;;;;;;;;;13040410;22;20419;-81
2023/07/17 08:49:59;;;;;;;10.33;7.30;;;;;;;;;;13039938;22;20361;-81
2023/07/17 08:55:02;;;;;;;11.25;7.10;;;;;;;;;;13039703;22;20361;-81
2023/07/17 09:00:09;;;;;;;12.73;6.72;;;;;;;;;;13040270;22;20419;-81
2023/07/17 09:05:12;;;;;;;9.88;6.60;;;;;;;;;;13040831;22;20380;-81
2023/07/17 09:10:16;;;;;;;10.80;6.70;;;;;;;;;;13039486;22;20817;-81
2023/07/17 09:15:21;;;;;;;10.68;6.57;;;;;;;;;;13041195;22;20435;-81
2023/07/17 09:20:24;;;;;;;8.25;6.28;;;;;;;;;;13040842;22;20430;-81
2023/07/17 09:25:27;;;;;;;9.15;6.18;;;;;;;;;;13040309;22;20450;-81
2023/07/17 09:30:32;;;;;;;9.32;5.80;;;;;;;;;;13040441;22;20357;-81
2023/07/17 09:35:36;;;;;;;9.98;6.00;;;;;;;;;;13040960;22;20407;-81
2023/07/17 09:40:39;;;;;;;7.80;5.40;;;;;;;;;;13039948;22;20357;-81
2023/07/17 09:45:45;;;;;;;8.30;5.70;;;;;;;;;;13041403;22;20938;-81
2023/07/17 09:50:48;;;;;;;10.93;7.30;;;;;;;;;;13042530;22;20365;-81
2023/07/17 09:55:52;;;;;;;8.38;5.72;;;;;;;;;;13043097;22;20361;-82
2023/07/17 10:00:58;;;;;;;7.95;5.00;;;;;;;;;;13044383;22;20906;-81
2023/07/17 10:06:00;;;;;;;7.93;4.82;;;;;;;;;;13044510;22;20385;-81
2023/07/17 10:11:03;;;;;;;6.40;5.00;;;;;;;;;;13043447;22;20361;-82
2023/07/17 10:16:07;;;;;;;9.43;5.33;;;;;;;;;;13042377;22;20361;-82
2023/07/17 10:21:14;;;;;;;6.68;5.50;;;;;;;;;;13043240;22;20369;-81
2023/07/17 10:26:18;;;;;;;7.73;5.13;;;;;;;;;;13043346;22;20381;-81
2023/07/17 10:31:23;;;;;;;7.90;5.18;;;;;;;;;;13044389;22;20365;-82
2023/07/17 10:36:39;;;;;;;7.93;5.17;;;;;;;;;;13044575;22;20365;-81
2023/07/17 10:41:42;;;;;;;7.50;5.32;;;;;;;;;;13043136;22;20663;-81
2023/07/17 10:46:47;;;;;;;7.95;5.15;;;;;;;;;;13043031;22;20438;-82
2023/07/17 10:51:51;;;;;;;7.17;4.80;;;;;;;;;;13043075;22;20373;-82
2023/07/17 10:56:53;;;;;;;9.55;5.20;;;;;;;;;;13042721;22;20369;-82
2023/07/17 11:02:02;;;;;;;9.38;5.50;;;;;;;;;;13043196;22;20465;-82
2023/07/17 11:07:09;;;;;;;8.73;5.83;;;;;;;;;;13043595;22;20384;-81
2023/07/17 11:12:11;;;;;;;8.27;5.80;;;;;;;;;;13042511;22;20357;-82
2023/07/17 11:17:15;;;;;;;8.20;5.50;;;;;;;;;;13042790;22;20361;-81
2023/07/17 11:22:17;;;;;;;9.65;5.80;;;;;;;;;;13042397;22;20361;-82
2023/07/17 11:27:20;;;;;;;9.50;5.65;;;;;;;;;;13043256;22;20840;-82
2023/07/17 11:32:28;;;;;;;11.00;5.70;;;;;;;;;;13041556;22;20426;-82
2023/07/17 11:37:32;;;;;;;9.97;5.97;;;;;;;;;;13041211;22;20391;-81
2023/07/17 11:42:52;;;;;;;8.13;5.75;;;;;;;;;;13041985;22;20362;-82
2023/07/17 11:47:58;;;;;;;7.07;5.53;;;;;;;;;;13041633;22;20474;-82
2023/07/17 11:53:07;;;;;;;7.72;6.05;;;;;;;;;;13041479;22;20365;-82
2023/07/17 11:58:17;;;;;;;10.60;6.00;;;;;;;;;;13041990;22;20403;-81
2023/07/17 12:03:22;;;;;;;7.80;5.63;;;;;;;;;;13031692;22;20438;-82
2023/07/17 12:08:25;;;;;;;9.15;5.85;;;;;;;;;;13032252;22;20369;-82
2023/07/17 12:13:27;;;;;;;10.02;5.50;;;;;;;;;;13004816;22;20377;-82
2023/07/17 12:18:31;;;;;;;7.32;5.25;;;;;;;;;;13033354;22;20373;-82
2023/07/17 12:23:34;;;;;;;7.80;6.13;;;;;;;;;;13032427;22;20445;-82
2023/07/17 12:28:36;;;;;;;8.88;5.60;;;;;;;;;;13033289;22;20963;-82
2023/07/17 12:33:40;;;;;;;10.77;5.70;;;;;;;;;;13032669;22;20372;-82
2023/07/17 12:38:42;;;;;;;11.13;6.80;;;;;;;;;;13035796;22;20424;-82
2023/07/17 12:43:45;;;;;;;10.13;7.10;;;;;;;;;;13039479;22;20731;-82
2023/07/17 12:48:48;;;;;;;8.17;6.43;;;;;;;;;;13041923;22;20391;-82
2023/07/17 12:53:51;;;;;;;9.60;7.20;;;;;;;;;;13040783;22;20361;-82
2023/07/17 12:58:54;;;;;;;9.10;6.97;;;;;;;;;;13041480;22;20352;-82
2023/07/17 13:03:58;;;;;;;7.53;6.72;;;;;;;;;;13039867;22;20430;-82
2023/07/17 13:09:01;;;;;;;8.20;6.57;;;;;;;;;;13040723;22;20813;-82
2023/07/17 13:14:05;;;;;;;11.03;6.90;;;;;;;;;;13040983;22;20361;-81
2023/07/17 13:19:09;;;;;;;10.80;7.38;;;;;;;;;;13040599;22;20430;-82
2023/07/17 13:24:12;;;;;;;8.53;6.83;;;;;;;;;;13040772;22;20376;-82
2023/07/17 13:29:14;;;;;;;9.48;7.00;;;;;;;;;;13045496;22;20418;-82
2023/07/17 13:34:18;;;;;;;10.33;6.80;;;;;;;;;;13045173;22;20361;-82
2023/07/17 13:39:20;;;;;;;9.03;6.50;;;;;;;;;;13045381;22;20414;-82
2023/07/17 13:44:23;;;;;;;8.55;7.03;;;;;;;;;;13044810;22;20434;-82
2023/07/17 13:49:26;;;;;;;10.27;7.17;;;;;;;;;;13044259;22;20368;-82
2023/07/17 13:54:29;;;;;;;9.80;6.87;;;;;;;;;;13044774;22;20369;-82
2023/07/17 13:59:31;;;;;;;7.95;7.05;;;;;;;;;;13044881;22;20415;-82
2023/07/17 14:04:35;;;;;;;10.03;7.03;;;;;;;;;;13045244;22;20751;-83
2023/07/17 14:09:37;;;;;;;8.47;6.90;;;;;;;;;;13044062;22;20353;-83
2023/07/17 14:14:39;;;;;;;10.20;6.85;;;;;;;;;;13044298;22;20689;-82
2023/07/17 14:19:43;;;;;;;9.03;6.70;;;;;;;;;;13043959;22;20365;-82
2023/07/17 14:24:45;;;;;;;8.80;7.40;;;;;;;;;;13044379;22;20377;-82
2023/07/17 14:29:47;;;;;;;9.45;7.07;;;;;;;;;;13043687;22;20360;-82
2023/07/17 14:34:51;;;;;;;13.40;7.20;;;;;;;;;;13043251;22;20373;-82
2023/07/17 14:39:53;;;;;;;9.43;7.30;;;;;;;;;;13042675;22;20365;-82
2023/07/17 14:44:56;;;;;;;8.55;7.03;;;;;;;;;;13042553;22;20377;-81
2023/07/17 14:50:00;;;;;;;12.60;8.25;;;;;;;;;;13043087;22;20368;-82
2023/07/17 14:55:02;;;;;;;12.35;7.97;;;;;;;;;;13043248;22;20365;-82
2023/07/17 15:00:12;;;;;;;8.20;7.10;;;;;;;;;;13016516;22;20365;-81
2023/07/17 15:05:16;;;;;;;8.73;6.88;;;;;;;;;;13042870;22;20377;-81
2023/07/17 15:10:19;;;;;;;9.20;6.68;;;;;;;;;;13038633;22;20667;-81
2023/07/17 15:15:22;;;;;;;11.20;7.00;;;;;;;;;;13036402;22;20457;-81
2023/07/17 15:20:25;;;;;;;9.30;7.05;;;;;;;;;;13010089;22;20423;-81
2023/07/17 15:25:28;;;;;;;8.10;6.60;;;;;;;;;;13032999;22;20764;-81
2023/07/17 15:30:30;;;;;;;9.65;6.57;;;;;;;;;;13029063;22;20449;-81
2023/07/17 15:35:34;;;;;;;10.40;7.40;;;;;;;;;;13029816;22;20876;-81
2023/07/17 15:40:36;;;;;;;9.83;7.00;;;;;;;;;;13029193;22;20361;-80
2023/07/17 15:45:38;;;;;;;7.90;6.60;;;;;;;;;;13029825;22;20384;-81
2023/07/17 15:50:42;;;;;;;10.63;7.17;;;;;;;;;;13028544;22;20376;-81
2023/07/17 15:55:44;;;;;;;11.20;7.40;;;;;;;;;;13027478;22;20439;-81
2023/07/17 16:00:47;;;;;;;12.52;7.00;;;;;;;;;;13029629;22;20439;-81
2023/07/17 16:05:51;;;;;;;11.95;6.70;;;;;;;;;;13029657;22;20450;-81
2023/07/17 16:10:53;;;;;;;10.88;6.22;;;;;;;;;;13027627;22;20403;-81
2023/07/17 16:15:55;;;;;;;8.07;5.87;;;;;;;;;;13029163;22;20369;-81
2023/07/17 16:20:59;;;;;;;8.63;5.65;;;;;;;;;;13027888;22;20849;-81
2023/07/17 16:26:04;;;;;;;8.52;5.20;;;;;;;;;;13027908;22;20376;-81
2023/07/17 16:31:07;;;;;;;10.82;5.10;;;;;;;;;;13029007;22;20399;-80
2023/07/17 16:36:10;;;;;;;9.05;4.90;;;;;;;;;;13029020;22;20365;-81
2023/07/17 16:41:13;;;;;;;10.10;5.00;;;;;;;;;;13026279;22;20365;-82
2023/07/17 16:46:15;;;;;;;8.20;4.53;;;;;;;;;;13028953;22;20385;-85
2023/07/17 16:51:19;;;;;;;10.67;4.90;;;;;;;;;;13027624;22;20369;-81
2023/07/17 16:56:21;;;;;;;8.67;4.60;;;;;;;;;;13028206;22;20438;-81
2023/07/17 17:01:23;;;;;;;7.80;5.00;;;;;;;;;;13031861;22;20372;-82
2023/07/17 17:06:27;;;;;;;8.10;4.80;;;;;;;;;;13033512;22;20385;-81
2023/07/17 17:11:30;;;;;;;7.13;4.77;;;;;;;;;;13031329;22;20402;-82
2023/07/17 17:16:32;;;;;;;7.55;4.40;;;;;;;;;;13031555;22;20403;-82
2023/07/17 17:21:36;;;;;;;8.70;4.60;;;;;;;;;;13033456;22;20380;-78
2023/07/17 17:26:38;;;;;;;8.10;4.90;;;;;;;;;;13031130;22;20414;-78
2023/07/17 17:31:40;;;;;;;10.60;5.97;;;;;;;;;;13032043;22;20940;-78
2023/07/17 17:36:44;;;;;;;14.27;6.80;;;;;;;;;;13033372;22;20419;-78
2023/07/17 17:41:46;;;;;;;12.40;6.90;;;;;;;;;;13028975;22;20377;-78
2023/07/17 17:46:49;;;;;;;10.43;6.33;;;;;;;;;;13032436;22;20381;-79
2023/07/17 17:51:52;;;;;;;11.65;6.13;;;;;;;;;;13032019;22;20372;-79
2023/07/17 17:56:55;;;;;;;10.88;6.25;;;;;;;;;;13030726;22;20377;-79
2023/07/17 18:01:59;;;;;;;10.32;6.32;;;;;;;;;;13005038;22;20741;-79
2023/07/17 18:07:03;;;;;;;9.52;5.57;;;;;;;;;;13031325;22;20462;-79
2023/07/17 18:12:06;;;;;;;11.20;5.33;;;;;;;;;;13028396;22;20377;-81
2023/07/17 18:17:08;;;;;;;15.30;6.80;;;;;;;;;;13031159;22;20766;-81
2023/07/17 18:22:12;;;;;;;10.47;6.00;;;;;;;;;;13031506;22;20372;-81
2023/07/17 18:27:14;;;;;;;10.55;5.70;;;;;;;;;;13030019;22;20385;-79
2023/07/17 18:32:17;;;;;;;10.52;5.15;;;;;;;;;;13030223;22;20479;-81
2023/07/17 18:37:20;;;;;;;8.95;5.10;;;;;;;;;;13030085;22;20418;-80
2023/07/17 18:42:23;;;;;;;10.32;6.00;;;;;;;;;;13027362;22;20435;-80
2023/07/17 18:47:25;;;;;;;10.57;5.60;;;;;;;;;;13028659;22;20384;-80
2023/07/17 18:52:29;;;;;;;8.93;5.40;;;;;;;;;;13028939;22;20747;-80
2023/07/17 18:57:31;;;;;;;9.53;5.67;;;;;;;;;;13028879;22;20973;-79
2023/07/17 19:02:33;;;;;;;13.80;6.80;;;;;;;;;;13030334;22;20446;-78
2023/07/17 19:07:37;;;;;;;11.25;7.38;;;;;;;;;;13036112;22;20376;-78
2023/07/17 19:12:40;;;;;;;14.07;7.75;;;;;;;;;;13030709;22;20373;-79
2023/07/17 19:17:42;;;;;;;13.63;7.70;;;;;;;;;;13028930;22;20437;-79
2023/07/17 19:22:46;;;;;;;11.88;8.00;;;;;;;;;;13027695;22;20376;-81
2023/07/17 19:27:49;;;;;;;11.27;7.45;;;;;;;;;;13030745;22;20407;-81
2023/07/17 19:32:52;;;;;;;12.02;8.05;;;;;;;;;;13027996;22;20361;-80
2023/07/17 19:37:55;;;;;;;11.63;8.13;;;;;;;;;;13029447;22;20422;-80
2023/07/17 19:42:58;;;;;;;12.47;8.53;;;;;;;;;;13029216;22;20369;-80
2023/07/17 19:48:00;;;;;;;11.60;7.60;;;;;;;;;;13027902;22;20381;-81
2023/07/17 19:53:04;;;;;;;12.43;8.43;;;;;;;;;;13027746;22;20821;-80
2023/07/17 19:58:06;;;;;;;12.77;8.55;;;;;;;;;;13029512;22;20880;-81
2023/07/17 20:03:09;;;;;;;11.95;8.68;;;;;;;;;;13028431;22;20373;-80
2023/07/17 20:08:12;;;;;;;11.60;8.65;;;;;;;;;;13029462;22;20411;-80
2023/07/17 20:13:15;;;;;;;12.23;8.07;;;;;;;;;;13028330;22;20377;-80
2023/07/17 20:18:18;;;;;;;13.70;8.50;;;;;;;;;;13028325;22;20377;-80
2023/07/17 20:23:21;;;;;;;13.18;8.77;;;;;;;;;;13029295;22;20414;-81
2023/07/17 20:28:24;;;;;;;12.40;9.13;;;;;;;;;;13028633;22;20716;-80
2023/07/17 20:33:27;;;;;;;15.50;8.90;;;;;;;;;;13027835;22;20454;-80
2023/07/17 20:38:32;;;;;;;13.00;9.13;;;;;;;;;;13027020;22;20434;-80
2023/07/17 20:43:34;;;;;;;14.07;9.75;;;;;;;;;;13028571;22;20377;-80
2023/07/17 20:48:38;;;;;;;16.20;10.70;;;;;;;;;;13031566;22;20396;-80
2023/07/17 20:53:42;;;;;;;16.83;12.43;;;;;;;;;;13027770;22;20373;-79
2023/07/17 20:58:45;;;;;;;19.27;11.80;;;;;;;;;;13028611;22;20377;-80
2023/07/17 21:03:47;;;;;;;18.67;12.13;;;;;;;;;;13027184;22;20701;-80
2023/07/17 21:08:51;;;;;;;15.13;11.52;;;;;;;;;;13027112;22;21073;-80
2023/07/17 21:13:53;;;;;;;15.32;11.15;;;;;;;;;;13027070;22;20407;-80
2023/07/17 21:18:55;;;;;;;16.50;11.77;;;;;;;;;;13028551;22;20372;-80
2023/07/17 21:23:59;;;;;;;17.60;12.57;;;;;;;;;;13028190;22;20423;-80
2023/07/17 21:29:02;;;;;;;18.92;12.68;;;;;;;;;;13031500;22;20403;-80
2023/07/17 21:34:05;;;;;;;19.50;12.10;;;;;;;;;;13032402;22;20364;-80
2023/07/17 21:39:08;;;;;;;19.73;12.32;;;;;;;;;;13032403;22;20444;-80
2023/07/17 21:44:11;;;;;;;19.13;12.35;;;;;;;;;;13032188;22;20438;-80
2023/07/17 21:49:13;;;;;;;16.33;11.57;;;;;;;;;;13035603;22;20435;-80
2023/07/17 21:54:17;;;;;;;13.30;10.75;;;;;;;;;;13035352;22;20372;-80
2023/07/17 21:59:19;;;;;;;15.73;11.07;;;;;;;;;;13036392;22;20438;-80
2023/07/17 22:04:21;;;;;;;15.70;11.75;;;;;;;;;;13033783;22;20377;-79
2023/07/17 22:09:25;;;;;;;15.45;11.45;;;;;;;;;;13036005;22;20446;-81
2023/07/17 22:14:28;;;;;;;16.13;11.68;;;;;;;;;;13037956;22;20422;-80
2023/07/17 22:19:30;;;;;;;17.58;11.35;;;;;;;;;;13039984;22;20414;-81
2023/07/17 22:24:34;;;;;;;14.73;10.57;;;;;;;;;;13040963;22;20369;-81
2023/07/17 22:29:38;;;;;;;14.02;10.70;;;;;;;;;;13043971;22;20377;-81
2023/07/17 22:34:40;;;;;;;14.77;11.30;;;;;;;;;;13044288;22;20423;-81
2023/07/17 22:39:45;;;;;;;14.50;10.80;;;;;;;;;;13043173;22;20361;-81
2023/07/17 22:44:49;;;;;;;17.25;11.75;;;;;;;;;;13043258;22;20395;-81
2023/07/17 22:49:52;;;;;;;14.82;11.38;;;;;;;;;;13042936;22;20381;-81
2023/07/17 22:54:58;;;;;;;17.95;12.80;;;;;;;;;;13043472;22;20415;-81
2023/07/17 23:00:01;;;;;;;18.65;12.45;;;;;;;;;;13043395;22;20357;-81
2023/07/17 23:05:03;;;;;;;18.95;12.82;;;;;;;;;;13044058;22;20426;-81
2023/07/17 23:10:10;;;;;;;19.10;14.98;;;;;;;;;;13041132;22;20377;-81
2023/07/17 23:15:12;;;;;;;20.03;15.97;;;;;;;;;;13042891;22;20426;-80
2023/07/17 23:20:16;;;;;;;21.13;15.30;;;;;;;;;;13043344;22;20446;-80
2023/07/17 23:25:20;;;;;;;22.67;16.50;;;;;;;;;;13042386;22;20458;-81
2023/07/17 23:30:22;;;;;;;23.60;16.13;;;;;;;;;;13043299;22;20384;-81
2023/07/17 23:35:25;;;;;;;21.83;15.67;;;;;;;;;;13042825;22;20395;-81
2023/07/17 23:40:29;;;;;;;18.88;14.85;;;;;;;;;;13042790;22;20357;-80
2023/07/17 23:45:33;;;;;;;17.73;14.00;;;;;;;;;;13044102;22;20361;-80
2023/07/17 23:50:36;;;;;;;21.60;14.18;;;;;;;;;;13042717;22;20450;-80
2023/07/17 23:55:39;;;;;;;18.42;13.65;;;;;;;;;;13043041;22;20361;-80
